sensor_id;sensor_type;location;lat;lon;timestamp;temperature;humidity
49829;DHT22;35723;51.194;5.112;2023-11-18T00:00:27;8.70;99.90
49829;DHT22;35723;51.194;5.112;2023-11-18T00:02:52;8.80;99.90
49829;DHT22;35723;51.194;5.112;2023-11-18T00:05:18;8.80;99.90
49829;DHT22;35723;51.194;5.112;2023-11-18T00:07:44;8.70;99.90
49829;DHT22;35723;51.194;5.112;2023-11-18T00:10:10;8.70;99.90
49829;DHT22;35723;51.194;5.112;2023-11-18T00:12:36;8.60;99.90
49829;DHT22;35723;51.194;5.112;2023-11-18T00:15:03;8.70;99.90
49829;DHT22;35723;51.194;5.112;2023-11-18T00:17:30;8.70;99.90
49829;DHT22;35723;51.194;5.112;2023-11-18T00:19:57;8.80;99.90
49829;DHT22;35723;51.194;5.112;2023-11-18T00:22:23;8.80;99.90
49829;DHT22;35723;51.194;5.112;2023-11-18T00:24:48;8.80;99.90
49829;DHT22;35723;51.194;5.112;2023-11-18T00:27:14;8.80;99.90
49829;DHT22;35723;51.194;5.112;2023-11-18T00:29:40;8.80;99.90
49829;DHT22;35723;51.194;5.112;2023-11-18T00:32:07;8.80;99.90
49829;DHT22;35723;51.194;5.112;2023-11-18T00:34:35;8.80;99.90
49829;DHT22;35723;51.194;5.112;2023-11-18T00:37:01;8.80;99.90
49829;DHT22;35723;51.194;5.112;2023-11-18T00:39:27;8.80;99.90
49829;DHT22;35723;51.194;5.112;2023-11-18T00:41:53;8.80;99.90
49829;DHT22;35723;51.194;5.112;2023-11-18T00:44:19;8.70;99.90
49829;DHT22;35723;51.194;5.112;2023-11-18T00:46:45;8.80;99.90
49829;DHT22;35723;51.194;5.112;2023-11-18T00:49:10;8.70;99.90
49829;DHT22;35723;51.194;5.112;2023-11-18T00:51:39;8.80;99.90
49829;DHT22;35723;51.194;5.112;2023-11-18T00:54:04;8.80;99.90
49829;DHT22;35723;51.194;5.112;2023-11-18T00:56:33;8.70;99.90
49829;DHT22;35723;51.194;5.112;2023-11-18T00:59:00;8.70;99.90
49829;DHT22;35723;51.194;5.112;2023-11-18T01:01:28;8.80;99.90
49829;DHT22;35723;51.194;5.112;2023-11-18T01:03:54;8.70;99.90
49829;DHT22;35723;51.194;5.112;2023-11-18T01:06:19;8.70;99.90
49829;DHT22;35723;51.194;5.112;2023-11-18T01:08:46;8.70;99.90
49829;DHT22;35723;51.194;5.112;2023-11-18T01:11:18;8.70;99.90
49829;DHT22;35723;51.194;5.112;2023-11-18T01:13:50;8.60;99.90
49829;DHT22;35723;51.194;5.112;2023-11-18T01:16:16;8.60;99.90
49829;DHT22;35723;51.194;5.112;2023-11-18T01:18:42;8.60;99.90
49829;DHT22;35723;51.194;5.112;2023-11-18T01:21:08;8.60;99.90
49829;DHT22;35723;51.194;5.112;2023-11-18T01:23:38;8.70;99.90
49829;DHT22;35723;51.194;5.112;2023-11-18T01:26:05;8.70;99.90
49829;DHT22;35723;51.194;5.112;2023-11-18T01:28:34;8.70;99.90
49829;DHT22;35723;51.194;5.112;2023-11-18T01:31:07;8.70;99.90
49829;DHT22;35723;51.194;5.112;2023-11-18T01:33:40;8.70;99.90
49829;DHT22;35723;51.194;5.112;2023-11-18T01:36:07;8.70;99.90
49829;DHT22;35723;51.194;5.112;2023-11-18T01:38:36;8.70;99.90
49829;DHT22;35723;51.194;5.112;2023-11-18T01:41:06;8.70;99.90
49829;DHT22;35723;51.194;5.112;2023-11-18T01:43:32;8.60;99.90
49829;DHT22;35723;51.194;5.112;2023-11-18T01:46:08;8.60;99.90
49829;DHT22;35723;51.194;5.112;2023-11-18T01:48:36;8.70;99.90
49829;DHT22;35723;51.194;5.112;2023-11-18T01:51:05;8.70;99.90
49829;DHT22;35723;51.194;5.112;2023-11-18T01:53:31;8.70;99.90
49829;DHT22;35723;51.194;5.112;2023-11-18T01:55:58;8.80;99.90
49829;DHT22;35723;51.194;5.112;2023-11-18T01:58:24;8.70;99.90
49829;DHT22;35723;51.194;5.112;2023-11-18T02:00:51;8.70;99.90
49829;DHT22;35723;51.194;5.112;2023-11-18T02:03:17;8.70;99.90
49829;DHT22;35723;51.194;5.112;2023-11-18T02:05:43;8.70;99.90
49829;DHT22;35723;51.194;5.112;2023-11-18T02:08:10;8.70;99.90
49829;DHT22;35723;51.194;5.112;2023-11-18T02:10:47;8.80;99.90
49829;DHT22;35723;51.194;5.112;2023-11-18T02:13:26;8.70;99.90
49829;DHT22;35723;51.194;5.112;2023-11-18T02:15:56;8.70;99.90
49829;DHT22;35723;51.194;5.112;2023-11-18T02:18:29;8.70;99.90
49829;DHT22;35723;51.194;5.112;2023-11-18T02:20:56;8.70;99.90
49829;DHT22;35723;51.194;5.112;2023-11-18T02:23:26;8.70;99.90
49829;DHT22;35723;51.194;5.112;2023-11-18T02:25:52;8.70;99.90
49829;DHT22;35723;51.194;5.112;2023-11-18T02:28:18;8.70;99.90
49829;DHT22;35723;51.194;5.112;2023-11-18T02:30:45;8.70;99.90
49829;DHT22;35723;51.194;5.112;2023-11-18T02:33:36;8.70;99.90
49829;DHT22;35723;51.194;5.112;2023-11-18T02:36:31;8.70;99.90
49829;DHT22;35723;51.194;5.112;2023-11-18T02:39:10;8.70;99.90
49829;DHT22;35723;51.194;5.112;2023-11-18T02:41:42;8.70;99.90
49829;DHT22;35723;51.194;5.112;2023-11-18T02:44:11;8.80;99.90
49829;DHT22;35723;51.194;5.112;2023-11-18T02:46:37;8.80;99.90
49829;DHT22;35723;51.194;5.112;2023-11-18T02:49:03;8.70;99.90
49829;DHT22;35723;51.194;5.112;2023-11-18T02:51:29;8.70;99.90
49829;DHT22;35723;51.194;5.112;2023-11-18T02:54:07;8.70;99.90
49829;DHT22;35723;51.194;5.112;2023-11-18T02:56:38;8.70;99.90
49829;DHT22;35723;51.194;5.112;2023-11-18T02:59:04;8.70;99.90
49829;DHT22;35723;51.194;5.112;2023-11-18T03:01:33;8.60;99.90
49829;DHT22;35723;51.194;5.112;2023-11-18T03:04:00;8.70;99.90
49829;DHT22;35723;51.194;5.112;2023-11-18T03:06:26;8.60;99.90
49829;DHT22;35723;51.194;5.112;2023-11-18T03:08:52;8.60;99.90
49829;DHT22;35723;51.194;5.112;2023-11-18T03:11:18;8.60;99.90
49829;DHT22;35723;51.194;5.112;2023-11-18T03:13:44;8.60;99.90
49829;DHT22;35723;51.194;5.112;2023-11-18T03:16:11;8.60;99.90
49829;DHT22;35723;51.194;5.112;2023-11-18T03:18:42;8.60;99.90
49829;DHT22;35723;51.194;5.112;2023-11-18T03:21:11;8.60;99.90
49829;DHT22;35723;51.194;5.112;2023-11-18T03:23:41;8.60;99.90
49829;DHT22;35723;51.194;5.112;2023-11-18T03:26:10;8.60;99.90
49829;DHT22;35723;51.194;5.112;2023-11-18T03:28:36;8.50;99.90
49829;DHT22;35723;51.194;5.112;2023-11-18T03:31:05;8.50;99.90
49829;DHT22;35723;51.194;5.112;2023-11-18T03:33:31;8.60;99.90
49829;DHT22;35723;51.194;5.112;2023-11-18T03:35:57;8.50;99.90
49829;DHT22;35723;51.194;5.112;2023-11-18T03:38:22;8.50;99.90
49829;DHT22;35723;51.194;5.112;2023-11-18T03:40:49;8.40;99.90
49829;DHT22;35723;51.194;5.112;2023-11-18T03:43:15;8.50;99.90
49829;DHT22;35723;51.194;5.112;2023-11-18T03:45:41;8.50;99.90
49829;DHT22;35723;51.194;5.112;2023-11-18T03:48:07;8.40;99.90
49829;DHT22;35723;51.194;5.112;2023-11-18T03:50:35;8.50;99.90
49829;DHT22;35723;51.194;5.112;2023-11-18T03:53:01;8.50;99.90
49829;DHT22;35723;51.194;5.112;2023-11-18T03:55:29;8.50;99.90
49829;DHT22;35723;51.194;5.112;2023-11-18T03:57:55;8.50;99.90
49829;DHT22;35723;51.194;5.112;2023-11-18T04:00:22;8.50;99.90
49829;DHT22;35723;51.194;5.112;2023-11-18T04:02:48;8.50;99.90
49829;DHT22;35723;51.194;5.112;2023-11-18T04:05:14;8.50;99.90
49829;DHT22;35723;51.194;5.112;2023-11-18T04:07:39;8.50;99.90
49829;DHT22;35723;51.194;5.112;2023-11-18T04:10:08;8.50;99.90
49829;DHT22;35723;51.194;5.112;2023-11-18T04:12:38;8.60;99.90
49829;DHT22;35723;51.194;5.112;2023-11-18T04:15:05;8.50;99.90
49829;DHT22;35723;51.194;5.112;2023-11-18T04:17:31;8.50;99.90
49829;DHT22;35723;51.194;5.112;2023-11-18T04:19:57;8.50;99.90
49829;DHT22;35723;51.194;5.112;2023-11-18T04:22:23;8.50;99.90
49829;DHT22;35723;51.194;5.112;2023-11-18T04:24:49;8.50;99.90
49829;DHT22;35723;51.194;5.112;2023-11-18T04:27:15;8.50;99.90
49829;DHT22;35723;51.194;5.112;2023-11-18T04:29:41;8.40;99.90
49829;DHT22;35723;51.194;5.112;2023-11-18T04:32:07;8.50;99.90
49829;DHT22;35723;51.194;5.112;2023-11-18T04:34:36;8.60;99.90
49829;DHT22;35723;51.194;5.112;2023-11-18T04:37:05;8.60;99.90
49829;DHT22;35723;51.194;5.112;2023-11-18T04:39:34;8.60;99.90
49829;DHT22;35723;51.194;5.112;2023-11-18T04:42:00;8.60;99.90
49829;DHT22;35723;51.194;5.112;2023-11-18T04:44:27;8.60;99.90
49829;DHT22;35723;51.194;5.112;2023-11-18T04:46:52;8.60;99.90
49829;DHT22;35723;51.194;5.112;2023-11-18T04:49:18;8.60;99.90
49829;DHT22;35723;51.194;5.112;2023-11-18T04:51:44;8.60;99.90
49829;DHT22;35723;51.194;5.112;2023-11-18T04:54:10;8.60;99.90
49829;DHT22;35723;51.194;5.112;2023-11-18T04:56:36;8.60;99.90
49829;DHT22;35723;51.194;5.112;2023-11-18T04:59:03;8.60;99.90
49829;DHT22;35723;51.194;5.112;2023-11-18T05:01:30;8.60;99.90
49829;DHT22;35723;51.194;5.112;2023-11-18T05:03:56;8.60;99.90
49829;DHT22;35723;51.194;5.112;2023-11-18T05:06:22;8.60;99.90
49829;DHT22;35723;51.194;5.112;2023-11-18T05:08:48;8.60;99.90
49829;DHT22;35723;51.194;5.112;2023-11-18T05:11:13;8.60;99.90
49829;DHT22;35723;51.194;5.112;2023-11-18T05:13:39;8.60;99.90
49829;DHT22;35723;51.194;5.112;2023-11-18T05:16:07;8.60;99.90
49829;DHT22;35723;51.194;5.112;2023-11-18T05:18:33;8.60;99.90
49829;DHT22;35723;51.194;5.112;2023-11-18T05:21:01;8.70;99.90
49829;DHT22;35723;51.194;5.112;2023-11-18T05:23:28;8.60;99.90
49829;DHT22;35723;51.194;5.112;2023-11-18T05:25:55;8.70;99.90
49829;DHT22;35723;51.194;5.112;2023-11-18T05:28:21;8.70;99.90
49829;DHT22;35723;51.194;5.112;2023-11-18T05:30:47;8.70;99.90
49829;DHT22;35723;51.194;5.112;2023-11-18T05:33:13;8.70;99.90
49829;DHT22;35723;51.194;5.112;2023-11-18T05:35:43;8.70;99.90
49829;DHT22;35723;51.194;5.112;2023-11-18T05:38:15;8.70;99.90
49829;DHT22;35723;51.194;5.112;2023-11-18T05:40:44;8.70;99.90
49829;DHT22;35723;51.194;5.112;2023-11-18T05:43:19;8.80;99.90
49829;DHT22;35723;51.194;5.112;2023-11-18T05:45:46;8.80;99.90
49829;DHT22;35723;51.194;5.112;2023-11-18T05:48:32;8.80;99.90
49829;DHT22;35723;51.194;5.112;2023-11-18T05:50:57;8.80;99.90
49829;DHT22;35723;51.194;5.112;2023-11-18T05:53:23;8.80;99.90
49829;DHT22;35723;51.194;5.112;2023-11-18T05:55:49;8.90;99.90
49829;DHT22;35723;51.194;5.112;2023-11-18T05:58:15;8.80;99.90
49829;DHT22;35723;51.194;5.112;2023-11-18T06:00:40;8.80;99.90
49829;DHT22;35723;51.194;5.112;2023-11-18T06:03:06;8.80;99.90
49829;DHT22;35723;51.194;5.112;2023-11-18T06:05:32;8.80;99.90
49829;DHT22;35723;51.194;5.112;2023-11-18T06:08:00;8.70;99.90
49829;DHT22;35723;51.194;5.112;2023-11-18T06:10:26;8.80;99.90
49829;DHT22;35723;51.194;5.112;2023-11-18T06:12:51;8.80;99.90
49829;DHT22;35723;51.194;5.112;2023-11-18T06:15:18;8.80;99.90
49829;DHT22;35723;51.194;5.112;2023-11-18T06:17:44;8.80;99.90
49829;DHT22;35723;51.194;5.112;2023-11-18T06:20:11;8.80;99.90
49829;DHT22;35723;51.194;5.112;2023-11-18T06:22:39;8.90;99.90
49829;DHT22;35723;51.194;5.112;2023-11-18T06:25:05;8.80;99.90
49829;DHT22;35723;51.194;5.112;2023-11-18T06:27:33;8.80;99.90
49829;DHT22;35723;51.194;5.112;2023-11-18T06:29:58;8.80;99.90
49829;DHT22;35723;51.194;5.112;2023-11-18T06:32:24;8.80;99.90
49829;DHT22;35723;51.194;5.112;2023-11-18T06:34:54;8.90;99.90
49829;DHT22;35723;51.194;5.112;2023-11-18T06:37:24;8.90;99.90
49829;DHT22;35723;51.194;5.112;2023-11-18T06:39:50;8.70;99.90
49829;DHT22;35723;51.194;5.112;2023-11-18T06:42:16;8.90;99.90
49829;DHT22;35723;51.194;5.112;2023-11-18T06:44:41;8.90;99.90
49829;DHT22;35723;51.194;5.112;2023-11-18T06:47:07;9.00;99.90
49829;DHT22;35723;51.194;5.112;2023-11-18T06:49:32;9.00;99.90
49829;DHT22;35723;51.194;5.112;2023-11-18T06:52:02;8.90;99.90
49829;DHT22;35723;51.194;5.112;2023-11-18T06:54:30;8.90;99.90
49829;DHT22;35723;51.194;5.112;2023-11-18T06:56:58;8.90;99.90
49829;DHT22;35723;51.194;5.112;2023-11-18T06:59:24;8.90;99.90
49829;DHT22;35723;51.194;5.112;2023-11-18T07:01:50;9.00;99.90
49829;DHT22;35723;51.194;5.112;2023-11-18T07:04:15;9.00;99.90
49829;DHT22;35723;51.194;5.112;2023-11-18T07:06:41;9.00;99.90
49829;DHT22;35723;51.194;5.112;2023-11-18T07:09:09;9.00;99.90
49829;DHT22;35723;51.194;5.112;2023-11-18T07:11:46;9.00;99.90
49829;DHT22;35723;51.194;5.112;2023-11-18T07:14:12;9.10;99.90
49829;DHT22;35723;51.194;5.112;2023-11-18T07:16:40;9.10;99.90
49829;DHT22;35723;51.194;5.112;2023-11-18T07:19:07;9.10;99.90
49829;DHT22;35723;51.194;5.112;2023-11-18T07:21:33;9.00;99.90
49829;DHT22;35723;51.194;5.112;2023-11-18T07:23:59;9.10;99.90
49829;DHT22;35723;51.194;5.112;2023-11-18T07:26:25;9.10;99.90
49829;DHT22;35723;51.194;5.112;2023-11-18T07:28:51;9.20;99.90
49829;DHT22;35723;51.194;5.112;2023-11-18T07:31:17;9.20;99.90
49829;DHT22;35723;51.194;5.112;2023-11-18T07:33:45;9.20;99.90
49829;DHT22;35723;51.194;5.112;2023-11-18T07:36:15;9.20;99.90
49829;DHT22;35723;51.194;5.112;2023-11-18T07:38:41;9.20;99.90
49829;DHT22;35723;51.194;5.112;2023-11-18T07:41:07;9.20;99.90
49829;DHT22;35723;51.194;5.112;2023-11-18T07:43:34;9.30;99.90
49829;DHT22;35723;51.194;5.112;2023-11-18T07:46:02;9.30;99.90
49829;DHT22;35723;51.194;5.112;2023-11-18T07:48:28;9.30;99.90
49829;DHT22;35723;51.194;5.112;2023-11-18T07:50:54;9.30;99.90
49829;DHT22;35723;51.194;5.112;2023-11-18T07:53:19;9.30;99.90
49829;DHT22;35723;51.194;5.112;2023-11-18T07:55:46;9.30;99.90
49829;DHT22;35723;51.194;5.112;2023-11-18T07:58:15;9.30;99.90
49829;DHT22;35723;51.194;5.112;2023-11-18T08:00:43;9.30;99.90
49829;DHT22;35723;51.194;5.112;2023-11-18T08:03:13;9.40;99.90
49829;DHT22;35723;51.194;5.112;2023-11-18T08:05:43;9.40;99.90
49829;DHT22;35723;51.194;5.112;2023-11-18T08:08:09;9.40;99.90
49829;DHT22;35723;51.194;5.112;2023-11-18T08:10:37;9.30;99.90
49829;DHT22;35723;51.194;5.112;2023-11-18T08:13:09;9.30;99.90
49829;DHT22;35723;51.194;5.112;2023-11-18T08:15:38;9.30;99.90
49829;DHT22;35723;51.194;5.112;2023-11-18T08:18:05;9.40;99.90
49829;DHT22;35723;51.194;5.112;2023-11-18T08:20:31;9.40;99.90
49829;DHT22;35723;51.194;5.112;2023-11-18T08:22:57;9.50;99.90
49829;DHT22;35723;51.194;5.112;2023-11-18T08:25:23;9.50;99.90
49829;DHT22;35723;51.194;5.112;2023-11-18T08:27:49;9.40;99.90
49829;DHT22;35723;51.194;5.112;2023-11-18T08:30:15;9.40;99.90
49829;DHT22;35723;51.194;5.112;2023-11-18T08:32:44;9.50;99.90
49829;DHT22;35723;51.194;5.112;2023-11-18T08:35:11;9.50;99.90
49829;DHT22;35723;51.194;5.112;2023-11-18T08:37:39;9.50;99.90
49829;DHT22;35723;51.194;5.112;2023-11-18T08:40:06;9.50;99.90
49829;DHT22;35723;51.194;5.112;2023-11-18T08:42:47;9.60;99.90
49829;DHT22;35723;51.194;5.112;2023-11-18T08:45:22;9.50;99.90
49829;DHT22;35723;51.194;5.112;2023-11-18T08:47:53;9.60;99.90
49829;DHT22;35723;51.194;5.112;2023-11-18T08:50:18;9.60;99.90
49829;DHT22;35723;51.194;5.112;2023-11-18T08:52:45;9.60;99.90
49829;DHT22;35723;51.194;5.112;2023-11-18T08:55:19;9.60;99.90
49829;DHT22;35723;51.194;5.112;2023-11-18T08:58:17;9.50;99.90
49829;DHT22;35723;51.194;5.112;2023-11-18T09:00:54;9.50;99.90
49829;DHT22;35723;51.194;5.112;2023-11-18T09:03:22;9.60;99.90
49829;DHT22;35723;51.194;5.112;2023-11-18T09:05:51;9.60;99.90
49829;DHT22;35723;51.194;5.112;2023-11-18T09:08:24;9.60;99.90
49829;DHT22;35723;51.194;5.112;2023-11-18T09:10:50;9.70;99.90
49829;DHT22;35723;51.194;5.112;2023-11-18T09:13:20;9.70;99.90
49829;DHT22;35723;51.194;5.112;2023-11-18T09:15:48;9.70;99.90
49829;DHT22;35723;51.194;5.112;2023-11-18T09:18:13;9.70;99.90
49829;DHT22;35723;51.194;5.112;2023-11-18T09:20:39;9.10;99.90
49829;DHT22;35723;51.194;5.112;2023-11-18T09:23:05;8.20;99.90
49829;DHT22;35723;51.194;5.112;2023-11-18T09:25:32;7.70;99.90
49829;DHT22;35723;51.194;5.112;2023-11-18T09:27:58;7.60;99.90
49829;DHT22;35723;51.194;5.112;2023-11-18T09:30:24;7.50;99.90
49829;DHT22;35723;51.194;5.112;2023-11-18T09:32:50;7.40;99.90
49829;DHT22;35723;51.194;5.112;2023-11-18T09:35:17;7.40;99.90
49829;DHT22;35723;51.194;5.112;2023-11-18T09:37:45;7.40;99.90
49829;DHT22;35723;51.194;5.112;2023-11-18T09:40:13;7.50;99.90
49829;DHT22;35723;51.194;5.112;2023-11-18T09:42:40;7.50;99.90
49829;DHT22;35723;51.194;5.112;2023-11-18T09:45:09;7.50;99.90
49829;DHT22;35723;51.194;5.112;2023-11-18T09:47:42;7.50;99.90
49829;DHT22;35723;51.194;5.112;2023-11-18T09:50:11;7.50;99.90
49829;DHT22;35723;51.194;5.112;2023-11-18T09:52:48;7.50;99.90
49829;DHT22;35723;51.194;5.112;2023-11-18T09:55:38;7.60;99.90
49829;DHT22;35723;51.194;5.112;2023-11-18T09:58:15;7.50;99.90
49829;DHT22;35723;51.194;5.112;2023-11-18T10:00:41;7.60;99.90
49829;DHT22;35723;51.194;5.112;2023-11-18T10:03:08;7.60;99.90
49829;DHT22;35723;51.194;5.112;2023-11-18T10:05:36;7.70;99.90
49829;DHT22;35723;51.194;5.112;2023-11-18T10:08:05;7.70;99.90
49829;DHT22;35723;51.194;5.112;2023-11-18T10:10:35;7.70;99.90
49829;DHT22;35723;51.194;5.112;2023-11-18T10:13:05;7.70;99.90
49829;DHT22;35723;51.194;5.112;2023-11-18T10:15:34;7.80;99.90
49829;DHT22;35723;51.194;5.112;2023-11-18T10:18:00;7.80;99.90
49829;DHT22;35723;51.194;5.112;2023-11-18T10:23:09;7.90;99.90
49829;DHT22;35723;51.194;5.112;2023-11-18T10:28:36;7.90;99.90
49829;DHT22;35723;51.194;5.112;2023-11-18T10:31:06;8.00;99.90
49829;DHT22;35723;51.194;5.112;2023-11-18T10:33:36;8.20;99.90
49829;DHT22;35723;51.194;5.112;2023-11-18T10:36:04;8.50;99.90
49829;DHT22;35723;51.194;5.112;2023-11-18T10:38:31;8.70;99.90
49829;DHT22;35723;51.194;5.112;2023-11-18T10:40:58;8.90;99.90
49829;DHT22;35723;51.194;5.112;2023-11-18T10:43:27;9.10;99.90
49829;DHT22;35723;51.194;5.112;2023-11-18T10:46:06;9.20;99.90
49829;DHT22;35723;51.194;5.112;2023-11-18T10:48:49;9.30;99.90
49829;DHT22;35723;51.194;5.112;2023-11-18T10:51:19;9.50;99.90
49829;DHT22;35723;51.194;5.112;2023-11-18T10:53:50;9.60;99.90
49829;DHT22;35723;51.194;5.112;2023-11-18T10:56:24;9.70;99.90
49829;DHT22;35723;51.194;5.112;2023-11-18T10:58:53;9.80;99.90
49829;DHT22;35723;51.194;5.112;2023-11-18T11:01:28;9.90;99.90
49829;DHT22;35723;51.194;5.112;2023-11-18T11:03:54;10.00;99.90
49829;DHT22;35723;51.194;5.112;2023-11-18T11:06:26;10.10;99.90
49829;DHT22;35723;51.194;5.112;2023-11-18T11:08:56;10.10;99.90
49829;DHT22;35723;51.194;5.112;2023-11-18T11:11:25;10.20;99.90
49829;DHT22;35723;51.194;5.112;2023-11-18T11:13:57;10.20;99.90
49829;DHT22;35723;51.194;5.112;2023-11-18T11:16:28;10.30;99.90
49829;DHT22;35723;51.194;5.112;2023-11-18T11:19:02;10.30;99.90
49829;DHT22;35723;51.194;5.112;2023-11-18T11:21:40;10.30;99.90
49829;DHT22;35723;51.194;5.112;2023-11-18T11:24:20;10.40;99.90
49829;DHT22;35723;51.194;5.112;2023-11-18T11:27:11;10.40;99.90
49829;DHT22;35723;51.194;5.112;2023-11-18T11:29:51;10.50;99.90
49829;DHT22;35723;51.194;5.112;2023-11-18T11:32:32;10.50;99.90
49829;DHT22;35723;51.194;5.112;2023-11-18T11:35:07;10.50;99.90
49829;DHT22;35723;51.194;5.112;2023-11-18T11:37:35;10.50;99.90
49829;DHT22;35723;51.194;5.112;2023-11-18T11:40:02;10.50;99.90
49829;DHT22;35723;51.194;5.112;2023-11-18T11:42:35;10.50;99.90
49829;DHT22;35723;51.194;5.112;2023-11-18T11:45:01;10.50;99.90
49829;DHT22;35723;51.194;5.112;2023-11-18T11:47:29;10.50;99.90
49829;DHT22;35723;51.194;5.112;2023-11-18T11:50:15;10.50;99.90
49829;DHT22;35723;51.194;5.112;2023-11-18T11:52:53;10.60;99.90
49829;DHT22;35723;51.194;5.112;2023-11-18T11:55:33;10.50;99.90
49829;DHT22;35723;51.194;5.112;2023-11-18T11:58:01;10.60;99.90
49829;DHT22;35723;51.194;5.112;2023-11-18T12:00:28;10.50;99.90
49829;DHT22;35723;51.194;5.112;2023-11-18T12:03:01;10.60;99.90
49829;DHT22;35723;51.194;5.112;2023-11-18T12:05:30;10.60;99.90
49829;DHT22;35723;51.194;5.112;2023-11-18T12:07:59;10.70;99.90
49829;DHT22;35723;51.194;5.112;2023-11-18T12:10:30;10.70;99.90
49829;DHT22;35723;51.194;5.112;2023-11-18T12:13:09;10.70;99.90
49829;DHT22;35723;51.194;5.112;2023-11-18T12:15:52;10.70;99.90
49829;DHT22;35723;51.194;5.112;2023-11-18T12:18:29;10.70;99.90
49829;DHT22;35723;51.194;5.112;2023-11-18T12:20:59;10.70;99.90
49829;DHT22;35723;51.194;5.112;2023-11-18T12:23:29;10.70;99.90
49829;DHT22;35723;51.194;5.112;2023-11-18T12:25:56;10.70;99.90
49829;DHT22;35723;51.194;5.112;2023-11-18T12:28:28;10.70;99.90
49829;DHT22;35723;51.194;5.112;2023-11-18T12:30:56;10.70;99.90
49829;DHT22;35723;51.194;5.112;2023-11-18T12:33:27;10.80;99.90
49829;DHT22;35723;51.194;5.112;2023-11-18T12:42:04;10.70;99.90
49829;DHT22;35723;51.194;5.112;2023-11-18T12:44:41;10.70;99.90
49829;DHT22;35723;51.194;5.112;2023-11-18T12:47:14;10.80;99.90
49829;DHT22;35723;51.194;5.112;2023-11-18T12:49:45;10.80;99.90
49829;DHT22;35723;51.194;5.112;2023-11-18T12:52:15;10.90;99.90
49829;DHT22;35723;51.194;5.112;2023-11-18T12:54:44;10.90;99.90
49829;DHT22;35723;51.194;5.112;2023-11-18T12:57:16;10.90;99.90
49829;DHT22;35723;51.194;5.112;2023-11-18T12:59:43;10.90;99.90
49829;DHT22;35723;51.194;5.112;2023-11-18T13:02:10;10.90;99.90
49829;DHT22;35723;51.194;5.112;2023-11-18T13:04:43;10.90;99.90
49829;DHT22;35723;51.194;5.112;2023-11-18T13:07:30;10.90;99.90
49829;DHT22;35723;51.194;5.112;2023-11-18T13:09:56;10.80;99.90
49829;DHT22;35723;51.194;5.112;2023-11-18T13:12:22;10.90;99.90
49829;DHT22;35723;51.194;5.112;2023-11-18T13:14:49;10.90;99.90
49829;DHT22;35723;51.194;5.112;2023-11-18T13:17:15;11.00;99.90
49829;DHT22;35723;51.194;5.112;2023-11-18T13:19:42;11.00;99.90
49829;DHT22;35723;51.194;5.112;2023-11-18T13:22:12;10.90;99.90
49829;DHT22;35723;51.194;5.112;2023-11-18T13:24:39;11.00;99.90
49829;DHT22;35723;51.194;5.112;2023-11-18T13:27:05;11.00;99.90
49829;DHT22;35723;51.194;5.112;2023-11-18T13:29:35;11.10;99.90
49829;DHT22;35723;51.194;5.112;2023-11-18T13:32:02;11.00;99.90
49829;DHT22;35723;51.194;5.112;2023-11-18T13:34:35;11.10;99.90
49829;DHT22;35723;51.194;5.112;2023-11-18T13:37:03;11.00;99.90
49829;DHT22;35723;51.194;5.112;2023-11-18T13:39:31;11.00;99.90
49829;DHT22;35723;51.194;5.112;2023-11-18T13:41:57;10.90;99.90
49829;DHT22;35723;51.194;5.112;2023-11-18T13:44:36;10.90;99.90
49829;DHT22;35723;51.194;5.112;2023-11-18T13:47:06;10.90;99.90
49829;DHT22;35723;51.194;5.112;2023-11-18T13:49:33;11.00;99.90
49829;DHT22;35723;51.194;5.112;2023-11-18T13:52:00;11.00;99.90
49829;DHT22;35723;51.194;5.112;2023-11-18T13:54:28;11.00;99.90
49829;DHT22;35723;51.194;5.112;2023-11-18T13:56:58;11.00;99.90
49829;DHT22;35723;51.194;5.112;2023-11-18T13:59:27;11.10;99.90
49829;DHT22;35723;51.194;5.112;2023-11-18T14:01:58;11.10;99.90
49829;DHT22;35723;51.194;5.112;2023-11-18T14:04:24;11.10;99.90
49829;DHT22;35723;51.194;5.112;2023-11-18T14:06:51;11.10;99.90
49829;DHT22;35723;51.194;5.112;2023-11-18T14:09:18;11.10;99.90
49829;DHT22;35723;51.194;5.112;2023-11-18T14:11:47;11.10;99.90
49829;DHT22;35723;51.194;5.112;2023-11-18T14:14:12;11.10;99.90
49829;DHT22;35723;51.194;5.112;2023-11-18T14:16:38;11.00;99.90
49829;DHT22;35723;51.194;5.112;2023-11-18T14:19:05;11.00;99.90
49829;DHT22;35723;51.194;5.112;2023-11-18T14:21:32;11.10;99.90
49829;DHT22;35723;51.194;5.112;2023-11-18T14:23:57;11.10;99.90
49829;DHT22;35723;51.194;5.112;2023-11-18T14:26:27;11.00;99.90
49829;DHT22;35723;51.194;5.112;2023-11-18T14:28:54;10.90;99.90
49829;DHT22;35723;51.194;5.112;2023-11-18T14:31:21;10.90;99.90
49829;DHT22;35723;51.194;5.112;2023-11-18T14:33:47;11.00;99.90
49829;DHT22;35723;51.194;5.112;2023-11-18T14:36:14;11.00;99.90
49829;DHT22;35723;51.194;5.112;2023-11-18T14:38:40;11.00;99.90
49829;DHT22;35723;51.194;5.112;2023-11-18T14:41:06;11.00;99.90
49829;DHT22;35723;51.194;5.112;2023-11-18T14:43:33;11.10;99.90
49829;DHT22;35723;51.194;5.112;2023-11-18T14:46:00;11.10;99.90
49829;DHT22;35723;51.194;5.112;2023-11-18T14:48:25;11.10;99.90
49829;DHT22;35723;51.194;5.112;2023-11-18T14:50:51;11.00;99.90
49829;DHT22;35723;51.194;5.112;2023-11-18T14:53:17;11.10;99.90
49829;DHT22;35723;51.194;5.112;2023-11-18T14:55:43;11.10;99.90
49829;DHT22;35723;51.194;5.112;2023-11-18T14:58:09;11.00;99.90
49829;DHT22;35723;51.194;5.112;2023-11-18T15:00:37;11.10;99.90
49829;DHT22;35723;51.194;5.112;2023-11-18T15:03:03;11.10;99.90
49829;DHT22;35723;51.194;5.112;2023-11-18T15:05:28;11.10;99.90
49829;DHT22;35723;51.194;5.112;2023-11-18T15:07:56;11.10;99.90
49829;DHT22;35723;51.194;5.112;2023-11-18T15:10:24;11.30;99.90
49829;DHT22;35723;51.194;5.112;2023-11-18T15:12:52;11.30;99.90
49829;DHT22;35723;51.194;5.112;2023-11-18T15:15:22;11.20;99.90
49829;DHT22;35723;51.194;5.112;2023-11-18T15:17:56;11.10;99.90
49829;DHT22;35723;51.194;5.112;2023-11-18T15:20:23;11.20;99.90
49829;DHT22;35723;51.194;5.112;2023-11-18T15:22:49;11.00;99.90
49829;DHT22;35723;51.194;5.112;2023-11-18T15:25:15;11.00;99.90
49829;DHT22;35723;51.194;5.112;2023-11-18T15:27:43;11.00;99.90
49829;DHT22;35723;51.194;5.112;2023-11-18T15:30:12;11.10;99.90
49829;DHT22;35723;51.194;5.112;2023-11-18T15:32:42;11.10;99.90
49829;DHT22;35723;51.194;5.112;2023-11-18T15:35:09;11.20;99.90
49829;DHT22;35723;51.194;5.112;2023-11-18T15:37:41;11.30;99.90
49829;DHT22;35723;51.194;5.112;2023-11-18T15:40:08;11.30;99.90
49829;DHT22;35723;51.194;5.112;2023-11-18T15:42:40;11.30;99.90
49829;DHT22;35723;51.194;5.112;2023-11-18T15:45:13;11.30;99.90
49829;DHT22;35723;51.194;5.112;2023-11-18T15:47:40;11.30;99.90
49829;DHT22;35723;51.194;5.112;2023-11-18T15:50:09;11.20;99.90
49829;DHT22;35723;51.194;5.112;2023-11-18T15:52:39;11.20;99.90
49829;DHT22;35723;51.194;5.112;2023-11-18T15:55:05;11.30;99.90
49829;DHT22;35723;51.194;5.112;2023-11-18T15:57:45;11.30;99.90
49829;DHT22;35723;51.194;5.112;2023-11-18T16:00:18;11.30;99.90
49829;DHT22;35723;51.194;5.112;2023-11-18T16:02:50;11.40;99.90